createdAt,value
2018-08-16T00:00:17.932Z,28.57
2018-08-16T00:02:47.310Z,27.03
2018-08-16T00:05:16.246Z,29.60
2018-08-16T00:07:45.689Z,30.67
2018-08-16T00:10:16.657Z,28.83
2018-08-16T00:12:46.954Z,29.13
2018-08-16T00:15:16.898Z,26.83
2018-08-16T00:17:45.952Z,29.07
2018-08-16T00:20:15.408Z,28.20
2018-08-16T00:22:44.729Z,27.97
2018-08-16T00:25:14.004Z,27.97
2018-08-16T00:27:43.291Z,27.87
2018-08-16T00:30:16.853Z,30.23
2018-08-16T00:32:45.953Z,29.70
2018-08-16T00:35:14.876Z,26.17
2018-08-16T00:37:43.929Z,28.37
2018-08-16T00:40:14.848Z,29.27
2018-08-16T00:42:43.817Z,29.27
2018-08-16T00:45:13.155Z,27.63
2018-08-16T00:47:42.415Z,28.10
2018-08-16T00:50:12.758Z,29.07
2018-08-16T00:52:41.492Z,29.50
2018-08-16T00:55:16.359Z,28.10
2018-08-16T00:57:51.237Z,26.77
2018-08-16T01:00:25.002Z,27.03
2018-08-16T01:02:58.241Z,26.00
2018-08-16T01:05:28.510Z,26.80
2018-08-16T01:07:58.914Z,26.20
2018-08-16T01:10:28.823Z,26.90
2018-08-16T01:12:59.135Z,27.20
2018-08-16T01:15:27.955Z,26.30
2018-08-16T01:17:57.088Z,27.40
2018-08-16T01:20:25.879Z,24.03
2018-08-16T01:22:54.739Z,25.27
2018-08-16T01:25:31.266Z,25.83
2018-08-16T01:28:00.349Z,24.63
2018-08-16T01:30:29.334Z,25.47
2018-08-16T01:32:58.108Z,25.40
2018-08-16T01:35:26.825Z,23.70
2018-08-16T01:37:55.539Z,25.10
2018-08-16T01:40:24.554Z,24.33
2018-08-16T01:42:53.291Z,25.83
2018-08-16T01:45:28.993Z,24.10
2018-08-16T01:47:57.732Z,22.87
2018-08-16T01:50:26.676Z,23.10
2018-08-16T01:52:55.745Z,26.27
2018-08-16T01:55:24.539Z,24.27
2018-08-16T01:57:53.336Z,23.30
2018-08-16T02:00:22.143Z,25.00
2018-08-16T02:02:51.126Z,24.00
2018-08-16T02:05:20.322Z,26.50
2018-08-16T02:07:49.044Z,25.67
2018-08-16T02:10:17.801Z,24.80
2018-08-16T02:12:46.778Z,22.00
2018-08-16T02:15:15.538Z,23.50
2018-08-16T02:17:44.631Z,24.40
2018-08-16T02:20:15.132Z,23.73
2018-08-16T02:22:44.986Z,24.00
2018-08-16T02:25:14.016Z,25.67
2018-08-16T02:27:42.779Z,23.70
2018-08-16T02:30:11.743Z,22.20
2018-08-16T02:32:40.633Z,25.97
2018-08-16T02:35:09.919Z,21.90
2018-08-16T02:37:39.178Z,22.20
2018-08-16T02:40:08.834Z,23.33
2018-08-16T02:42:38.153Z,22.50
2018-08-16T02:45:07.239Z,22.53
2018-08-16T02:47:36.326Z,22.13
2018-08-16T02:50:05.125Z,21.87
2018-08-16T02:52:33.888Z,22.43
2018-08-16T02:55:03.235Z,21.83
2018-08-16T02:57:32.390Z,21.97
2018-08-16T03:00:01.196Z,21.70
2018-08-16T03:02:30.281Z,19.63
2018-08-16T03:04:59.298Z,20.80
2018-08-16T03:07:28.341Z,22.27
2018-08-16T03:09:57.130Z,22.10
2018-08-16T03:12:26.716Z,22.87
2018-08-16T03:14:56.409Z,23.00
2018-08-16T03:17:25.597Z,21.90
2018-08-16T03:19:54.402Z,21.50
2018-08-16T03:22:23.231Z,21.07
2018-08-16T03:24:52.223Z,20.77
2018-08-16T03:27:22.750Z,21.67
2018-08-16T03:29:51.532Z,21.70
2018-08-16T03:32:20.955Z,22.27
2018-08-16T03:34:49.707Z,22.17
2018-08-16T03:37:18.527Z,23.27
2018-08-16T03:39:47.560Z,21.20
2018-08-16T03:42:16.317Z,19.83
2018-08-16T03:44:45.361Z,21.83
2018-08-16T03:47:14.649Z,21.40
2018-08-16T03:49:43.792Z,21.33
2018-08-16T03:52:12.811Z,21.63
2018-08-16T03:54:41.837Z,21.17
2018-08-16T03:57:10.850Z,22.13
2018-08-16T03:59:39.839Z,21.17
2018-08-16T04:02:08.875Z,21.57
2018-08-16T04:04:37.776Z,19.60
2018-08-16T04:07:07.090Z,21.33
2018-08-16T04:09:36.655Z,20.00
2018-08-16T04:12:06.535Z,21.23
2018-08-16T04:14:35.269Z,21.00
2018-08-16T04:17:04.447Z,20.70
2018-08-16T04:19:33.496Z,20.93
2018-08-16T04:22:02.791Z,20.53
2018-08-16T04:24:32.218Z,20.80
2018-08-16T04:27:01.741Z,21.73
2018-08-16T04:29:31.121Z,20.50
2018-08-16T04:32:00.155Z,21.40
2018-08-16T04:34:29.253Z,20.40
2018-08-16T04:36:58.220Z,22.63
2018-08-16T04:39:26.982Z,21.07
2018-08-16T04:41:57.145Z,21.70
2018-08-16T04:44:26.035Z,20.90
2018-08-16T04:46:55.041Z,22.03
2018-08-16T04:49:24.469Z,19.63
2018-08-16T04:51:54.309Z,20.03
2018-08-16T04:54:23.426Z,20.80
2018-08-16T04:56:52.602Z,21.17
2018-08-16T04:59:21.461Z,21.87
2018-08-16T05:01:50.868Z,20.63
2018-08-16T05:04:19.888Z,21.83
2018-08-16T05:06:49.314Z,22.40
2018-08-16T05:09:18.801Z,19.90
2018-08-16T05:11:48.405Z,21.87
2018-08-16T05:14:17.728Z,20.30
2018-08-16T05:16:46.938Z,20.80
2018-08-16T05:19:16.553Z,20.67
2018-08-16T05:21:45.543Z,21.77
2018-08-16T05:24:14.585Z,20.10
2018-08-16T05:26:43.706Z,21.53
2018-08-16T05:29:12.738Z,20.80
2018-08-16T05:31:41.606Z,20.93
2018-08-16T05:34:10.642Z,21.73
2018-08-16T05:36:39.404Z,19.77
2018-08-16T05:39:10.759Z,20.80
2018-08-16T05:41:39.943Z,20.90
2018-08-16T05:44:09.116Z,19.93
2018-08-16T05:46:37.949Z,19.30
2018-08-16T05:49:07.023Z,20.90
2018-08-16T05:51:35.778Z,19.53
2018-08-16T05:54:04.908Z,20.23
2018-08-16T05:56:33.910Z,21.47
2018-08-16T05:59:03.011Z,19.67
2018-08-16T06:01:32.717Z,20.63
2018-08-16T06:04:01.716Z,19.23
2018-08-16T06:06:30.698Z,18.30
2018-08-16T06:08:59.413Z,19.97
2018-08-16T06:11:28.498Z,19.73
2018-08-16T06:13:57.225Z,18.67
2018-08-16T06:16:25.981Z,17.50
2018-08-16T06:18:54.761Z,18.30
2018-08-16T06:21:23.469Z,16.13
2018-08-16T06:23:52.210Z,16.77
2018-08-16T06:26:21.263Z,17.83
2018-08-16T06:28:50.008Z,16.50
2018-08-16T06:31:19.084Z,18.23
2018-08-16T06:33:47.818Z,15.70
2018-08-16T06:36:16.681Z,15.50
2018-08-16T06:38:45.597Z,16.00
2018-08-16T06:41:14.309Z,15.33
2018-08-16T06:43:43.440Z,14.47
2018-08-16T06:46:12.185Z,15.13
2018-08-16T06:48:41.018Z,16.83
2018-08-16T06:51:10.317Z,15.50
2018-08-16T06:53:39.199Z,14.60
2018-08-16T06:56:10.549Z,13.50
2018-08-16T06:58:40.300Z,13.67
2018-08-16T07:01:09.785Z,13.20
2018-08-16T07:03:38.887Z,12.60
2018-08-16T07:06:08.056Z,11.27
2018-08-16T07:08:37.568Z,11.60
2018-08-16T07:11:06.586Z,13.60
2018-08-16T07:13:35.369Z,12.60
2018-08-16T07:16:04.119Z,10.20
2018-08-16T07:18:33.027Z,11.97
2018-08-16T07:21:01.797Z,12.80
2018-08-16T07:23:31.114Z,12.10
2018-08-16T07:26:00.181Z,10.00
2018-08-16T07:28:28.971Z,11.07
2018-08-16T07:30:58.119Z,10.90
2018-08-16T07:33:26.866Z,10.73
2018-08-16T07:35:55.976Z,11.30
2018-08-16T07:38:24.786Z,9.77
2018-08-16T07:40:53.859Z,10.57
2018-08-16T07:43:22.607Z,10.27
2018-08-16T07:45:51.768Z,10.50
2018-08-16T07:48:20.381Z,9.80
2018-08-16T07:50:49.414Z,8.83
2018-08-16T07:53:18.225Z,8.90
2018-08-16T07:55:46.994Z,8.23
2018-08-16T07:58:15.782Z,7.87
2018-08-16T08:00:44.529Z,8.83
2018-08-16T08:03:13.885Z,7.73
2018-08-16T08:05:42.651Z,8.37
2018-08-16T08:08:11.682Z,6.47
2018-08-16T08:10:40.531Z,8.80
2018-08-16T08:13:09.283Z,7.07
2018-08-16T08:15:38.105Z,7.07
2018-08-16T08:18:07.014Z,7.70
2018-08-16T08:20:36.493Z,7.10
2018-08-16T08:23:06.422Z,6.40
2018-08-16T08:25:35.410Z,6.20
2018-08-16T08:28:04.123Z,4.80
2018-08-16T08:30:33.231Z,5.87
2018-08-16T08:33:02.037Z,6.10
2018-08-16T08:35:31.103Z,5.23
2018-08-16T08:38:05.800Z,4.17
2018-08-16T08:40:34.789Z,4.43
2018-08-16T08:43:03.687Z,5.30
2018-08-16T08:45:32.431Z,4.70
2018-08-16T08:48:01.163Z,5.10
2018-08-16T08:50:30.401Z,4.77
2018-08-16T08:53:09.907Z,5.63
2018-08-16T08:55:49.712Z,5.57
2018-08-16T08:58:29.618Z,5.77
2018-08-16T09:00:58.748Z,5.63
2018-08-16T09:03:27.730Z,4.73
2018-08-16T09:05:56.844Z,4.63
2018-08-16T09:08:25.784Z,5.00
2018-08-16T09:11:11.029Z,4.73
2018-08-16T09:13:51.772Z,4.40
2018-08-16T09:16:24.816Z,4.50
2018-08-16T09:18:54.293Z,4.40
2018-08-16T09:21:23.050Z,5.20
2018-08-16T09:23:52.127Z,5.33
2018-08-16T09:26:26.165Z,5.97
2018-08-16T09:28:55.219Z,4.63
2018-08-16T09:31:35.093Z,4.70
2018-08-16T09:34:15.494Z,5.17
2018-08-16T09:36:44.595Z,4.70
2018-08-16T09:39:13.598Z,5.33
2018-08-16T09:41:42.934Z,4.63
2018-08-16T09:44:11.953Z,3.67
2018-08-16T09:46:54.610Z,4.67
2018-08-16T09:49:23.374Z,5.20
2018-08-16T09:51:52.136Z,4.40
2018-08-16T09:54:21.983Z,4.50
2018-08-16T09:56:51.362Z,4.43
2018-08-16T09:59:20.527Z,4.80
2018-08-16T10:01:49.348Z,5.47
2018-08-16T10:04:18.161Z,4.57
2018-08-16T10:06:47.167Z,5.43
2018-08-16T10:09:21.729Z,5.20
2018-08-16T10:11:50.547Z,5.07
2018-08-16T10:14:19.745Z,4.37
2018-08-16T10:16:48.906Z,4.40
2018-08-16T10:19:18.186Z,5.37
2018-08-16T10:21:47.192Z,3.97
2018-08-16T10:24:15.917Z,4.40
2018-08-16T10:26:44.964Z,4.63
2018-08-16T10:29:14.109Z,4.27
2018-08-16T10:31:43.210Z,4.83
2018-08-16T10:34:12.164Z,3.90
2018-08-16T10:36:41.293Z,4.00
2018-08-16T10:39:11.860Z,3.97
2018-08-16T10:41:41.198Z,4.50
2018-08-16T10:44:09.967Z,4.60
2018-08-16T10:46:39.015Z,3.70
2018-08-16T10:49:07.916Z,3.70
2018-08-16T10:51:36.970Z,3.97
2018-08-16T10:54:06.115Z,4.10
2018-08-16T10:56:34.823Z,4.17
2018-08-16T10:59:04.260Z,3.70
2018-08-16T11:01:33.060Z,4.30
2018-08-16T11:04:02.038Z,3.47
2018-08-16T11:06:31.109Z,3.77
2018-08-16T11:09:00.095Z,3.90
2018-08-16T11:11:28.899Z,4.07
2018-08-16T11:13:58.150Z,4.60
2018-08-16T11:16:27.350Z,3.60
2018-08-16T11:18:56.272Z,5.27
2018-08-16T11:21:25.245Z,5.17
2018-08-16T11:23:54.298Z,5.13
2018-08-16T11:26:23.748Z,5.20
2018-08-16T11:28:52.520Z,4.83
2018-08-16T11:31:21.642Z,4.27
2018-08-16T11:33:50.377Z,5.20
2018-08-16T11:36:19.620Z,5.67
2018-08-16T11:38:48.371Z,4.83
2018-08-16T11:41:17.096Z,5.27
2018-08-16T11:43:46.068Z,4.30
2018-08-16T11:46:15.164Z,5.77
2018-08-16T11:48:43.947Z,6.10
2018-08-16T11:51:12.658Z,5.47
2018-08-16T11:53:41.732Z,4.93
2018-08-16T11:56:10.818Z,4.40
2018-08-16T11:58:39.630Z,4.67
2018-08-16T12:01:08.890Z,4.57
2018-08-16T12:03:38.147Z,4.70
2018-08-16T12:06:07.046Z,4.50
2018-08-16T12:08:35.829Z,4.50
2018-08-16T12:11:04.643Z,3.80
2018-08-16T12:13:33.655Z,5.20
2018-08-16T12:16:02.946Z,3.57
2018-08-16T12:18:31.720Z,4.30
2018-08-16T12:21:00.538Z,3.77
2018-08-16T12:23:29.343Z,3.83
2018-08-16T12:25:58.336Z,3.60
2018-08-16T12:28:27.108Z,4.30
2018-08-16T12:30:55.910Z,3.50
2018-08-16T12:33:25.012Z,3.50
2018-08-16T12:36:57.923Z,4.43
2018-08-16T12:39:27.370Z,2.90
2018-08-16T12:41:56.492Z,3.23
2018-08-16T12:44:25.526Z,3.40
2018-08-16T12:46:54.482Z,3.40
2018-08-16T12:49:23.564Z,4.10
2018-08-16T12:51:52.567Z,3.57
2018-08-16T12:54:21.321Z,4.30
2018-08-16T12:56:50.042Z,3.73
2018-08-16T12:59:19.012Z,3.67
2018-08-16T13:01:48.335Z,3.90
2018-08-16T13:04:17.049Z,4.90
2018-08-16T13:06:46.035Z,3.67
2018-08-16T13:09:14.829Z,4.00
2018-08-16T13:11:43.618Z,4.33
2018-08-16T13:14:12.591Z,4.37
2018-08-16T13:16:41.813Z,4.17
2018-08-16T13:19:10.955Z,4.63
2018-08-16T13:21:39.600Z,4.87
2018-08-16T13:24:08.695Z,4.23
2018-08-16T13:26:38.070Z,4.20
2018-08-16T13:29:06.889Z,4.87
2018-08-16T13:31:36.165Z,4.83
2018-08-16T13:34:05.290Z,5.80
2018-08-16T13:36:35.241Z,4.40
2018-08-16T13:39:06.730Z,5.53
2018-08-16T13:41:35.793Z,5.30
2018-08-16T13:44:04.713Z,5.47
2018-08-16T13:46:33.444Z,4.43
2018-08-16T13:49:02.754Z,4.23
2018-08-16T13:51:31.650Z,4.90
2018-08-16T13:54:00.901Z,4.90
2018-08-16T13:56:30.943Z,4.60
2018-08-16T13:59:00.147Z,4.13
2018-08-16T14:01:29.345Z,4.50
2018-08-16T14:03:59.747Z,5.83
2018-08-16T14:06:31.684Z,5.10
2018-08-16T14:09:02.208Z,5.03
2018-08-16T14:11:33.135Z,5.30
2018-08-16T14:14:03.222Z,6.30
2018-08-16T14:16:33.781Z,5.20
2018-08-16T14:19:02.824Z,5.30
2018-08-16T14:21:33.414Z,4.50
2018-08-16T14:24:04.513Z,4.37
2018-08-16T14:26:33.338Z,5.93
2018-08-16T14:29:03.310Z,5.40
2018-08-16T14:31:32.767Z,5.73
2018-08-16T14:34:01.778Z,5.40
2018-08-16T14:36:30.879Z,5.70
2018-08-16T14:38:59.656Z,5.90
2018-08-16T14:41:29.389Z,6.80
2018-08-16T14:43:58.633Z,6.70
2018-08-16T14:46:27.685Z,5.87
2018-08-16T14:48:56.465Z,6.20
2018-08-16T14:51:28.013Z,5.57
2018-08-16T14:53:58.413Z,6.53
2018-08-16T14:56:27.480Z,6.60
2018-08-16T14:58:56.614Z,6.90
2018-08-16T15:01:25.655Z,6.43
2018-08-16T15:03:54.913Z,6.17
2018-08-16T15:06:23.749Z,5.30
2018-08-16T15:08:52.482Z,6.20
2018-08-16T15:11:21.598Z,5.73
2018-08-16T15:13:50.349Z,5.33
2018-08-16T15:16:19.361Z,5.13
2018-08-16T15:18:48.186Z,6.87
2018-08-16T15:21:17.564Z,6.17
2018-08-16T15:23:46.383Z,5.83
2018-08-16T15:26:16.283Z,5.97
2018-08-16T15:28:45.347Z,6.50
2018-08-16T15:31:14.434Z,6.50
2018-08-16T15:33:43.190Z,6.77
2018-08-16T15:36:12.598Z,6.23
2018-08-16T15:38:41.306Z,6.60
2018-08-16T15:41:10.154Z,8.27
2018-08-16T15:43:40.211Z,7.20
2018-08-16T15:46:09.091Z,8.23
2018-08-16T15:48:37.843Z,6.80
2018-08-16T15:51:07.023Z,6.97
2018-08-16T15:53:35.749Z,8.20
2018-08-16T15:56:04.528Z,7.67
2018-08-16T15:58:33.273Z,7.90
2018-08-16T16:01:02.248Z,7.63
2018-08-16T16:03:31.000Z,6.67
2018-08-16T16:06:00.141Z,7.13
2018-08-16T16:08:28.912Z,6.70
2018-08-16T16:10:57.689Z,7.20
2018-08-16T16:13:26.473Z,7.37
2018-08-16T16:15:55.188Z,6.70
2018-08-16T16:18:24.763Z,6.27
2018-08-16T16:20:53.842Z,6.17
2018-08-16T16:23:22.953Z,6.20
2018-08-16T16:25:51.990Z,6.67
2018-08-16T16:28:21.098Z,6.33
2018-08-16T16:30:49.955Z,5.73
2018-08-16T16:33:18.947Z,6.37
2018-08-16T16:35:48.241Z,6.13
2018-08-16T16:38:17.218Z,5.77
2018-08-16T16:40:46.195Z,6.07
2018-08-16T16:43:15.398Z,5.90
2018-08-16T16:45:44.365Z,4.90
2018-08-16T16:48:13.095Z,4.70
2018-08-16T16:50:41.835Z,4.33
2018-08-16T16:53:11.082Z,3.93
2018-08-16T16:55:40.743Z,4.77
2018-08-16T16:58:09.713Z,5.03
2018-08-16T17:00:38.750Z,5.10
2018-08-16T17:03:07.810Z,4.33
2018-08-16T17:05:36.791Z,5.83
2018-08-16T17:08:05.567Z,5.47
2018-08-16T17:10:34.367Z,4.63
2018-08-16T17:13:03.045Z,4.20
2018-08-16T17:15:31.834Z,4.70
2018-08-16T17:18:00.761Z,5.20
2018-08-16T17:20:29.712Z,4.90
2018-08-16T17:22:58.565Z,4.80
2018-08-16T17:25:27.265Z,5.97
2018-08-16T17:27:57.055Z,5.00
2018-08-16T17:30:26.442Z,4.60
2018-08-16T17:32:55.218Z,5.23
2018-08-16T17:35:25.030Z,5.20
2018-08-16T17:37:54.123Z,5.63
2018-08-16T17:40:23.325Z,4.70
2018-08-16T17:42:52.015Z,5.33
2018-08-16T17:45:20.725Z,5.40
2018-08-16T17:47:49.526Z,5.60
2018-08-16T17:50:18.862Z,5.83
2018-08-16T17:52:47.840Z,66.07
2018-08-16T17:55:17.144Z,15.30
2018-08-16T17:57:46.179Z,10.60
2018-08-16T18:00:15.805Z,7.67
2018-08-16T18:02:44.822Z,6.73
2018-08-16T18:05:13.548Z,6.80
2018-08-16T18:07:42.606Z,6.30
2018-08-16T18:10:11.371Z,4.83
2018-08-16T18:12:40.479Z,5.40
2018-08-16T18:15:10.741Z,6.47
2018-08-16T18:17:39.536Z,7.40
2018-08-16T18:20:08.920Z,6.60
2018-08-16T18:22:38.423Z,6.70
2018-08-16T18:25:08.258Z,6.50
2018-08-16T18:27:37.362Z,6.47
2018-08-16T18:30:07.579Z,6.40
2018-08-16T18:32:36.364Z,6.03
2018-08-16T18:35:05.528Z,6.37
2018-08-16T18:37:34.270Z,5.93
2018-08-16T18:40:03.000Z,6.70
2018-08-16T18:42:31.782Z,6.47
2018-08-16T18:45:01.043Z,6.13
2018-08-16T18:47:29.917Z,7.10
2018-08-16T18:49:58.702Z,6.47
2018-08-16T18:52:27.964Z,7.73
2018-08-16T18:54:57.053Z,17.63
2018-08-16T18:57:25.851Z,18.63
2018-08-16T18:59:54.966Z,8.60
2018-08-16T19:02:25.527Z,6.20
2018-08-16T19:04:54.978Z,5.10
2018-08-16T19:07:23.829Z,5.53
2018-08-16T19:09:52.570Z,4.50
2018-08-16T19:12:21.837Z,3.73
2018-08-16T19:14:50.550Z,4.53
2018-08-16T19:17:19.366Z,3.70
2018-08-16T19:19:48.090Z,3.70
2018-08-16T19:22:16.854Z,2.83
2018-08-16T19:24:45.694Z,2.90
2018-08-16T19:27:17.221Z,2.57
2018-08-16T19:29:58.628Z,2.97
2018-08-16T19:32:27.756Z,2.50
2018-08-16T19:34:56.821Z,2.90
2018-08-16T19:37:26.246Z,2.43
2018-08-16T19:39:55.000Z,2.60
2018-08-16T19:42:23.720Z,2.90
2018-08-16T19:44:52.610Z,2.50
2018-08-16T19:47:21.338Z,2.90
2018-08-16T19:49:50.365Z,2.67
2018-08-16T19:52:21.883Z,2.80
2018-08-16T19:54:51.098Z,2.07
2018-08-16T19:57:20.487Z,2.20
2018-08-16T19:59:49.241Z,2.57
2018-08-16T20:02:18.474Z,1.77
2018-08-16T20:04:47.703Z,1.97
2018-08-16T20:07:16.418Z,2.40
2018-08-16T20:09:45.563Z,2.90
2018-08-16T20:12:14.597Z,2.30
2018-08-16T20:14:43.308Z,2.63
2018-08-16T20:17:12.509Z,2.10
2018-08-16T20:19:41.288Z,2.80
2018-08-16T20:22:18.488Z,2.50
2018-08-16T20:24:47.928Z,2.47
2018-08-16T20:27:17.183Z,2.27
2018-08-16T20:29:47.706Z,2.50
2018-08-16T20:32:16.959Z,2.93
2018-08-16T20:34:45.842Z,2.50
2018-08-16T20:37:14.975Z,2.53
2018-08-16T20:39:43.693Z,2.43
2018-08-16T20:42:12.498Z,2.70
2018-08-16T20:44:41.462Z,2.70
2018-08-16T20:47:10.431Z,2.83
2018-08-16T20:49:39.436Z,3.00
2018-08-16T20:52:08.272Z,2.37
2018-08-16T20:54:37.090Z,3.00
2018-08-16T20:57:06.176Z,2.77
2018-08-16T20:59:35.842Z,2.50
2018-08-16T21:02:07.172Z,2.70
2018-08-16T21:04:37.041Z,2.67
2018-08-16T21:07:08.687Z,2.50
2018-08-16T21:09:37.907Z,3.40
2018-08-16T21:12:06.817Z,3.30
2018-08-16T21:14:35.889Z,2.97
2018-08-16T21:17:04.868Z,2.67
2018-08-16T21:19:33.648Z,2.60
2018-08-16T21:22:02.753Z,2.33
2018-08-16T21:24:34.553Z,3.10
2018-08-16T21:27:03.661Z,3.07
2018-08-16T21:29:33.140Z,2.80
2018-08-16T21:32:02.111Z,3.40
2018-08-16T21:34:31.278Z,3.57
2018-08-16T21:37:00.256Z,3.00
2018-08-16T21:39:29.130Z,4.00
2018-08-16T21:42:04.283Z,3.73
2018-08-16T21:44:33.734Z,3.83
2018-08-16T21:47:02.968Z,4.20
2018-08-16T21:49:33.129Z,3.60
2018-08-16T21:52:01.870Z,3.60
2018-08-16T21:54:40.676Z,3.33
2018-08-16T21:57:10.215Z,4.10
2018-08-16T21:59:39.545Z,3.47
2018-08-16T22:02:08.937Z,3.67
2018-08-16T22:04:39.503Z,4.50
2018-08-16T22:07:16.310Z,5.00
2018-08-16T22:09:45.591Z,3.50
2018-08-16T22:12:14.335Z,4.33
2018-08-16T22:14:43.451Z,4.33
2018-08-16T22:17:12.371Z,3.80
2018-08-16T22:19:41.583Z,3.83
2018-08-16T22:22:10.455Z,3.20
2018-08-16T22:24:39.670Z,3.00
2018-08-16T22:27:08.559Z,3.77
2018-08-16T22:29:37.763Z,3.33
2018-08-16T22:32:07.554Z,3.57
2018-08-16T22:34:36.842Z,4.17
2018-08-16T22:37:06.137Z,3.70
2018-08-16T22:39:34.920Z,3.20
2018-08-16T22:42:03.748Z,3.70
2018-08-16T22:44:34.451Z,4.70
2018-08-16T22:47:07.058Z,3.80
2018-08-16T22:49:40.667Z,4.80
2018-08-16T22:52:11.375Z,4.20
2018-08-16T22:54:41.913Z,4.07
2018-08-16T22:57:12.658Z,4.23
2018-08-16T22:59:43.460Z,4.30
2018-08-16T23:02:15.620Z,4.40
2018-08-16T23:04:46.112Z,3.90
2018-08-16T23:07:17.321Z,4.40
2018-08-16T23:09:46.278Z,4.43
2018-08-16T23:12:15.207Z,4.47
2018-08-16T23:14:44.397Z,4.53
2018-08-16T23:17:13.288Z,5.37
2018-08-16T23:19:42.245Z,4.63
2018-08-16T23:22:11.020Z,5.00
2018-08-16T23:24:40.251Z,5.60
2018-08-16T23:27:09.581Z,5.20
2018-08-16T23:29:38.480Z,4.53
2018-08-16T23:32:07.629Z,6.07
2018-08-16T23:34:36.753Z,6.20
2018-08-16T23:37:06.824Z,5.30
2018-08-16T23:39:36.330Z,6.17
2018-08-16T23:42:05.395Z,5.07
2018-08-16T23:44:34.178Z,5.43
2018-08-16T23:47:03.453Z,5.00
2018-08-16T23:49:32.433Z,4.80
2018-08-16T23:52:01.246Z,3.90
2018-08-16T23:54:30.082Z,4.10
2018-08-16T23:56:59.065Z,4.47
2018-08-16T23:59:27.850Z,4.00
